Time;durP1;ratioP1;P1;durP2;ratioP2;P2;SDS_P1;SDS_P2;PMS_P1;PMS_P2;Temp;Humidity;BMP_temperature;BMP_pressure;BME280_temperature;BME280_humidity;BME280_pressure;Samples;Min_cycle;Max_cycle;Signal;HPM_P1;HPM_P2
2023/08/19 07:23:40;;;;;;;9.35;8.18;;;;;;;-145.79;90.03;76165.03;5315845;27;20413;-68
2023/08/19 07:26:12;;;;;;;10.32;8.90;;;;;;;-145.79;89.30;76152.31;5300535;28;20031;-68
2023/08/19 07:28:44;;;;;;;11.55;9.13;;;;;;;-145.79;88.83;76143.84;5300773;28;20024;-68
2023/08/19 07:31:16;;;;;;;12.02;8.50;;;;;;;-145.79;88.02;76126.88;5291240;28;20376;-67
2023/08/19 07:33:49;;;;;;;9.93;7.65;;;;;;;-145.79;88.46;76137.47;5298967;28;20032;-67
2023/08/19 07:36:22;;;;;;;8.82;8.13;;;;;;;-145.79;88.25;76122.66;5299676;28;20412;-71
2023/08/19 07:38:53;;;;;;;8.35;7.53;;;;;;;-145.79;87.52;76126.88;5293736;28;20056;-71
2023/08/19 07:41:25;;;;;;;8.27;7.43;;;;;;;-145.79;87.49;76126.88;5299329;28;20105;-72
2023/08/19 07:43:56;;;;;;;8.27;7.38;;;;;;;-145.79;87.16;76114.19;5300606;28;20464;-72
2023/08/19 07:46:28;;;;;;;9.13;8.07;;;;;;;-145.79;86.91;76105.69;5297762;28;20040;-72
2023/08/19 07:48:59;;;;;;;9.88;7.78;;;;;;;-145.79;86.67;76099.34;5294296;28;20025;-72
2023/08/19 07:51:31;;;;;;;9.90;8.27;;;;;;;-145.79;86.54;76112.06;5299545;28;20051;-71
2023/08/19 07:54:02;;;;;;;8.30;7.57;;;;;;;-145.79;86.47;76114.19;5298432;28;20043;-71
2023/08/19 07:56:34;;;;;;;9.98;7.57;;;;;;;-145.79;86.17;76105.69;5299828;28;20066;-71
2023/08/19 07:59:05;;;;;;;9.07;8.13;;;;;;;-145.79;86.30;76095.09;5299824;28;20023;-72
2023/08/19 08:01:36;;;;;;;8.90;8.10;;;;;;;-145.79;86.57;76090.88;5299877;28;20355;-71
2023/08/19 08:04:08;;;;;;;8.77;7.97;;;;;;;-145.79;86.58;76088.75;5299910;28;20036;-71
2023/08/19 08:06:39;;;;;;;8.23;7.45;;;;;;;-145.79;86.72;76097.22;5297318;28;20414;-71
2023/08/19 08:09:10;;;;;;;8.70;7.93;;;;;;;-145.79;86.42;76082.38;5300003;28;20023;-71
2023/08/19 08:11:45;;;;;;;8.02;7.38;;;;;;;-145.79;86.42;76090.88;5298929;28;20036;-71
2023/08/19 08:14:16;;;;;;;8.07;7.30;;;;;;;-145.79;86.33;76097.22;5287162;28;20070;-76
2023/08/19 08:16:47;;;;;;;7.93;7.15;;;;;;;-145.79;87.15;76090.88;5299676;28;20286;-75
2023/08/19 08:19:22;;;;;;;8.25;7.18;;;;;;;-145.79;86.96;76092.97;5299552;28;20101;-74
2023/08/19 08:21:53;;;;;;;7.63;7.03;;;;;;;-145.79;87.39;76097.22;5306027;28;20550;-75
2023/08/19 08:24:25;;;;;;;7.60;6.85;;;;;;;-145.79;87.54;76095.09;5321032;28;20370;-78
2023/08/19 08:26:56;;;;;;;9.38;8.45;;;;;;;-145.79;87.02;76103.56;5319978;28;20027;-77
2023/08/19 08:29:27;;;;;;;10.07;6.63;;;;;;;-145.79;86.93;76114.19;5317095;28;20066;-76
2023/08/19 08:31:59;;;;;;;7.88;7.15;;;;;;;-145.79;87.12;76112.06;5319380;28;20431;-72
2023/08/19 08:34:30;;;;;;;9.68;8.32;;;;;;;-145.79;87.09;76099.34;5306211;28;20039;-72
2023/08/19 08:37:01;;;;;;;9.90;8.93;;;;;;;-145.79;87.05;76126.88;5306316;28;20542;-72
2023/08/19 08:39:32;;;;;;;10.93;9.77;;;;;;;-145.79;88.46;76122.66;5305989;28;20039;-73
2023/08/19 08:42:05;;;;;;;7.30;6.60;;;;;;;-145.79;89.04;76141.72;5305381;28;20028;-72
2023/08/19 08:44:37;;;;;;;8.20;7.38;;;;;;;-145.79;89.34;76129.00;5306125;28;20093;-73
2023/08/19 08:47:09;;;;;;;7.78;6.97;;;;;;;-145.79;89.61;76131.13;5300245;28;20024;-72
2023/08/19 08:49:43;;;;;;;8.77;7.85;;;;;;;-145.79;89.93;76135.38;5297300;28;20610;-75
2023/08/19 08:52:16;;;;;;;9.40;7.63;;;;;;;-145.79;89.45;76131.13;5302999;28;20012;-76
2023/08/19 08:54:52;;;;;;;8.25;7.45;;;;;;;-145.79;89.07;76143.84;5305061;28;20028;-76
2023/08/19 08:57:24;;;;;;;8.95;8.07;;;;;;;-145.79;89.54;76145.97;5300564;28;20039;-75
2023/08/19 08:59:55;;;;;;;10.13;7.95;;;;;;;-145.79;89.36;76152.31;5305884;28;20123;-74
2023/08/19 09:02:28;;;;;;;9.30;8.40;;;;;;;-145.79;89.74;76148.06;5303067;28;20481;-72
2023/08/19 09:05:00;;;;;;;8.50;7.68;;;;;;;-145.79;89.57;76148.06;5306148;28;20023;-75
2023/08/19 09:07:38;;;;;;;8.43;7.72;;;;;;;-145.79;89.21;76152.31;5303273;28;20095;-74
2023/08/19 09:10:15;;;;;;;9.20;8.50;;;;;;;-145.79;89.21;76143.84;5304602;28;20352;-75
2023/08/19 09:12:55;;;;;;;11.27;9.80;;;;;;;-145.79;88.73;76150.19;5304839;28;20478;-75
2023/08/19 09:15:29;;;;;;;10.85;9.05;;;;;;;-145.79;89.53;76143.84;5306162;28;20546;-78
2023/08/19 09:18:01;;;;;;;9.50;8.63;;;;;;;-145.79;88.05;76148.06;5299612;28;20029;-78
2023/08/19 09:20:33;;;;;;;9.32;8.38;;;;;;;-145.79;88.56;76143.84;5302989;28;20536;-77
2023/08/19 09:23:06;;;;;;;11.45;9.60;;;;;;;-145.79;88.34;76133.25;5303960;28;20399;-78
2023/08/19 09:25:40;;;;;;;12.90;8.73;;;;;;;-145.79;88.03;76141.72;5305783;28;20031;-79
2023/08/19 09:28:20;;;;;;;10.57;9.43;;;;;;;-145.79;88.60;76139.59;5305158;28;20032;-78
2023/08/19 09:30:52;;;;;;;10.70;9.63;;;;;;;-145.79;88.66;76141.72;5304885;28;20095;-80
2023/08/19 09:33:23;;;;;;;10.63;9.48;;;;;;;-145.79;87.15;76135.38;5306139;28;20088;-79
2023/08/19 09:35:57;;;;;;;14.43;10.95;;;;;;;-145.79;88.00;76129.00;5303215;28;20375;-76
2023/08/19 09:38:28;;;;;;;12.77;11.57;;;;;;;-145.79;87.68;76141.72;5302642;28;20024;-80
2023/08/19 09:41:03;;;;;;;11.15;10.05;;;;;;;-145.79;87.89;76124.78;5305629;28;20027;-80
2023/08/19 09:43:38;;;;;;;;;;;;;;;-145.79;88.50;76109.94;5304692;28;20131;-77
2023/08/19 09:46:09;;;;;;;11.85;10.40;;;;;;;-145.79;88.26;76099.34;5303665;28;20305;-77
2023/08/19 09:48:50;;;;;;;13.15;12.00;;;;;;;-145.79;86.99;76103.56;5304891;28;20123;-76
2023/08/19 09:51:26;;;;;;;13.38;12.32;;;;;;;-145.79;87.56;76095.09;5303626;28;20055;-74
2023/08/19 09:54:09;;;;;;;14.57;13.20;;;;;;;-145.79;86.96;76095.09;5288926;28;20548;-73
2023/08/19 09:56:40;;;;;;;14.57;13.07;;;;;;;-145.79;86.83;76103.56;5304876;28;20032;-75
2023/08/19 09:59:12;;;;;;;13.25;12.02;;;;;;;-145.79;86.41;76088.75;5303929;28;20020;-74
2023/08/19 10:01:43;;;;;;;13.65;12.48;;;;;;;-145.79;85.95;76076.03;5304625;28;20073;-75
2023/08/19 10:04:16;;;;;;;12.45;11.30;;;;;;;-145.79;85.43;76073.91;5304210;28;20052;-73
2023/08/19 10:06:50;;;;;;;13.85;12.45;;;;;;;-145.79;85.46;76073.91;5302074;28;20035;-73
2023/08/19 10:09:24;;;;;;;12.23;11.13;;;;;;;-145.79;85.71;76063.31;5304622;28;20501;-73
2023/08/19 10:11:59;;;;;;;11.52;10.48;;;;;;;-145.79;84.07;76082.38;5283907;28;20530;-73
2023/08/19 10:14:31;;;;;;;10.35;9.40;;;;;;;-145.79;84.16;76084.50;5302589;28;20051;-74
2023/08/19 10:17:05;;;;;;;11.90;10.70;;;;;;;-145.79;84.96;76092.97;5303590;28;20055;-73
2023/08/19 10:19:50;;;;;;;11.10;10.00;;;;;;;-145.79;85.22;76092.97;5301121;28;20586;-75
2023/08/19 10:22:22;;;;;;;12.27;11.15;;;;;;;-145.79;84.86;76095.09;5303939;28;20040;-74
2023/08/19 10:24:57;;;;;;;11.07;10.07;;;;;;;-145.79;84.62;76073.91;5304157;28;20036;-73
2023/08/19 10:27:28;;;;;;;13.13;11.98;;;;;;;-145.79;83.18;76076.03;5291643;28;20020;-76
2023/08/19 10:30:25;;;;;;;13.52;12.23;;;;;;;-145.79;83.68;76071.78;5303188;28;20142;-78
2023/08/19 10:33:02;;;;;;;12.88;11.73;;;;;;;-145.79;83.11;76082.38;5298156;28;20024;-76
2023/08/19 10:36:04;;;;;;;11.35;10.32;;;;;;;-145.79;82.89;76067.56;5302784;28;20020;-77
2023/08/19 10:38:54;;;;;;;11.57;10.55;;;;;;;-145.79;82.89;76067.56;5303992;28;20031;-76
2023/08/19 10:41:29;;;;;;;12.13;10.85;;;;;;;-145.79;82.63;76073.91;5302303;28;20092;-75
2023/08/19 10:44:04;;;;;;;10.93;9.82;;;;;;;-145.79;82.29;76088.75;5300000;28;20107;-81
2023/08/19 10:46:44;;;;;;;9.95;9.10;;;;;;;-145.79;81.84;76099.34;5301687;28;20042;-77
2023/08/19 10:49:21;;;;;;;10.77;9.73;;;;;;;-145.79;81.39;76112.06;5303243;28;20030;-75
2023/08/19 10:52:05;;;;;;;11.30;10.05;;;;;;;-145.79;82.15;76122.66;5303589;28;20020;-77
2023/08/19 10:54:41;;;;;;;17.52;15.90;;;;;;;-145.79;82.66;76131.13;5302701;28;20647;-76
2023/08/19 10:57:15;;;;;;;13.50;12.30;;;;;;;-145.79;83.38;76141.72;5300753;28;20020;-72
2023/08/19 10:59:49;;;;;;;12.87;11.60;;;;;;;-145.79;83.83;76152.31;5303220;28;20032;-76
2023/08/19 11:02:20;;;;;;;12.43;11.45;;;;;;;-145.79;84.58;76160.78;5301418;28;20036;-77
2023/08/19 11:04:53;;;;;;;14.75;13.45;;;;;;;-145.79;84.31;76171.38;5302428;28;20032;-77
2023/08/19 11:07:25;;;;;;;14.60;13.20;;;;;;;-145.79;84.66;76177.75;5302465;28;20032;-77
2023/08/19 11:09:56;;;;;;;16.83;14.50;;;;;;;-145.79;84.21;76184.09;5302919;28;20020;-75
2023/08/19 11:12:29;;;;;;;16.17;14.55;;;;;;;-145.79;83.63;76207.41;5303193;28;20058;-75
2023/08/19 11:15:00;;;;;;;14.23;12.93;;;;;;;-145.79;84.19;76228.59;5303064;28;20036;-76
2023/08/19 11:17:32;;;;;;;22.30;20.15;;;;;;;-145.79;84.16;76241.31;5302998;28;20414;-75
2023/08/19 11:20:12;;;;;;;15.70;14.07;;;;;;;-145.79;84.45;76245.56;5300489;28;20477;-75
2023/08/19 11:22:49;;;;;;;14.43;13.02;;;;;;;-145.79;84.10;76262.50;5302418;28;20063;-75
2023/08/19 11:25:20;;;;;;;13.85;12.75;;;;;;;-145.79;83.93;76277.34;5302693;28;20051;-73
2023/08/19 11:27:55;;;;;;;14.50;13.13;;;;;;;-145.79;83.52;76300.66;5303045;28;20032;-76
2023/08/19 11:30:26;;;;;;;;;;;;;;;-145.79;83.69;76300.66;5303340;28;20029;-77
2023/08/19 11:32:58;;;;;;;14.55;13.07;;;;;;;-145.79;84.93;76334.56;5304331;28;19946;-77
2023/08/19 11:35:41;;;;;;;28.92;26.15;;;;;;;-145.79;86.42;76330.31;5298875;28;20055;-73
2023/08/19 11:38:16;;;;;;;15.07;13.57;;;;;;;-145.79;87.87;76338.78;5302821;28;20032;-76
2023/08/19 11:40:50;;;;;;;14.77;13.27;;;;;;;-145.79;89.15;76343.03;5303157;28;20028;-75
2023/08/19 11:43:23;;;;;;;20.90;19.17;;;;;;;-145.79;89.55;76357.84;5303231;28;20024;-74
2023/08/19 11:45:54;;;;;;;18.52;16.83;;;;;;;-145.79;88.79;76372.69;5302544;28;20089;-72
2023/08/19 11:48:26;;;;;;;13.63;12.23;;;;;;;-145.79;86.74;76389.66;5303383;28;20020;-75
2023/08/19 11:50:57;;;;;;;11.25;10.25;;;;;;;-145.79;85.90;76404.47;5302278;28;20021;-75
2023/08/19 11:53:29;;;;;;;10.27;9.25;;;;;;;-145.79;86.41;76404.47;5300197;28;20112;-75
2023/08/19 11:56:02;;;;;;;9.00;8.13;;;;;;;-145.79;85.48;76408.72;5302863;28;20030;-72
2023/08/19 11:58:41;;;;;;;10.05;8.68;;;;;;;-145.79;85.54;76404.47;5300383;28;20030;-73
2023/08/19 12:01:13;;;;;;;9.27;8.45;;;;;;;-145.79;85.44;76406.59;5302577;28;20327;-77
2023/08/19 12:03:47;;;;;;;8.88;8.18;;;;;;;-145.79;85.06;76417.19;5303098;28;20055;-75
2023/08/19 12:06:18;;;;;;;9.05;8.13;;;;;;;-145.79;84.66;76408.72;5302483;28;20020;-73
2023/08/19 12:08:49;;;;;;;9.50;8.60;;;;;;;-145.79;84.47;76415.06;5303106;28;20504;-75
2023/08/19 12:11:25;;;;;;;9.13;8.20;;;;;;;-145.79;83.54;76412.97;5304659;28;20384;-76
2023/08/19 12:13:56;;;;;;;8.48;7.72;;;;;;;-145.79;83.22;76436.28;5304569;28;20024;-74
2023/08/19 12:16:28;;;;;;;8.70;7.88;;;;;;;-145.79;83.70;76444.75;5305851;28;20521;-74
2023/08/19 12:18:59;;;;;;;10.20;7.45;;;;;;;-145.79;84.08;76440.50;5306246;28;20034;-73
2023/08/19 12:21:31;;;;;;;10.18;8.45;;;;;;;-145.79;84.10;76415.06;5305522;28;20071;-74
2023/08/19 12:24:02;;;;;;;10.80;8.65;;;;;;;-145.79;84.00;76423.56;5306866;28;20483;-70
2023/08/19 12:26:33;;;;;;;46.67;42.05;;;;;;;-145.79;83.27;76429.91;5303147;28;20065;-71
2023/08/19 12:29:05;;;;;;;76.95;69.97;;;;;;;-145.79;83.44;76429.91;5304265;28;20027;-72
2023/08/19 12:31:36;;;;;;;11.20;10.20;;;;;;;-145.79;83.09;76434.16;5303762;28;20024;-75
2023/08/19 12:34:07;;;;;;;12.05;10.85;;;;;;;-145.79;83.12;76438.38;5305673;28;20133;-75
2023/08/19 12:36:39;;;;;;;13.23;11.45;;;;;;;-145.79;82.77;76440.50;5306067;28;20020;-74
2023/08/19 12:39:10;;;;;;;11.77;10.68;;;;;;;-145.79;83.01;76436.28;5306145;28;20024;-73
2023/08/19 12:41:43;;;;;;;12.32;11.13;;;;;;;-145.79;82.83;76442.63;5305479;28;20537;-74
2023/08/19 12:44:15;;;;;;;14.98;12.75;;;;;;;-145.79;81.95;76444.75;5300711;28;20028;-75
2023/08/19 12:46:46;;;;;;;14.40;12.90;;;;;;;-145.79;82.26;76442.63;5304076;28;20039;-77
2023/08/19 12:49:18;;;;;;;15.77;14.18;;;;;;;-145.79;82.54;76455.34;5305223;28;20573;-74
2023/08/19 12:51:49;;;;;;;16.85;15.15;;;;;;;-145.79;82.40;76448.97;5306198;28;20352;-78
2023/08/19 12:54:20;;;;;;;16.67;15.07;;;;;;;-145.79;83.12;76453.22;5303909;28;20035;-80
2023/08/19 12:56:52;;;;;;;15.35;14.00;;;;;;;-145.79;82.99;76444.75;5305697;28;20048;-81
2023/08/19 12:59:23;;;;;;;16.08;14.55;;;;;;;-145.79;82.63;76457.47;5305570;28;20063;-80
2023/08/19 13:01:54;;;;;;;16.75;15.02;;;;;;;-145.79;82.93;76457.47;5297079;28;20112;-80
2023/08/19 13:04:26;;;;;;;15.50;14.10;;;;;;;-145.79;82.72;76463.81;5306567;28;20020;-80
2023/08/19 13:06:57;;;;;;;15.98;14.32;;;;;;;-145.79;82.41;76478.66;5305147;28;20455;-79
2023/08/19 13:09:28;;;;;;;15.50;14.00;;;;;;;-145.79;81.50;76499.84;5300571;28;20036;-79
2023/08/19 13:12:02;;;;;;;16.05;13.50;;;;;;;-145.79;81.45;76508.31;5305439;28;20391;-79
2023/08/19 13:14:33;;;;;;;13.38;11.98;;;;;;;-145.79;81.57;76508.31;5300927;28;20043;-78
2023/08/19 13:17:04;;;;;;;11.82;10.82;;;;;;;-145.79;80.99;76504.09;5302165;28;20024;-80
2023/08/19 13:19:35;;;;;;;12.93;11.27;;;;;;;-145.79;80.96;76531.63;5297784;28;20077;-78
2023/08/19 13:22:07;;;;;;;13.80;10.65;;;;;;;-145.79;81.53;76542.22;5302222;28;20398;-78
2023/08/19 13:24:38;;;;;;;14.35;12.88;;;;;;;-145.79;81.97;76552.81;5305217;28;20031;-78
2023/08/19 13:27:11;;;;;;;13.10;11.60;;;;;;;-145.79;82.36;76550.69;5304588;28;20494;-77
2023/08/19 13:29:42;;;;;;;13.13;11.95;;;;;;;-145.79;82.64;76531.63;5304179;28;20162;-77
2023/08/19 13:32:14;;;;;;;13.35;11.30;;;;;;;-145.79;83.14;76531.63;5303353;28;20106;-68
2023/08/19 13:34:46;;;;;;;11.93;10.55;;;;;;;-145.79;81.92;76567.66;5300986;28;20467;-74
2023/08/19 13:37:18;;;;;;;11.93;10.77;;;;;;;-145.79;82.59;76554.94;5302266;28;20036;-79
2023/08/19 13:39:49;;;;;;;12.30;11.13;;;;;;;-145.79;82.83;76512.56;5303994;28;20027;-76
2023/08/19 13:42:21;;;;;;;13.77;12.48;;;;;;;-145.79;83.41;76559.19;5304458;28;20020;-78
2023/08/19 13:44:52;;;;;;;11.48;9.70;;;;;;;-145.79;83.47;76550.69;5304338;28;20062;-78
2023/08/19 13:47:23;;;;;;;11.45;9.25;;;;;;;-145.79;84.90;76521.03;5301870;28;20043;-79
2023/08/19 13:49:55;;;;;;;17.02;15.25;;;;;;;-145.79;83.09;76529.50;5304488;28;20027;-80
2023/08/19 13:52:40;;;;;;;11.57;10.25;;;;;;;-145.79;83.50;76554.94;5301126;28;20035;-82
2023/08/19 13:55:12;;;;;;;10.68;9.57;;;;;;;-145.79;82.57;76595.22;5301809;28;20024;-81
2023/08/19 13:57:43;;;;;;;7.75;7.00;;;;;;;-145.79;81.52;76578.25;5302413;28;20084;-79
2023/08/19 14:00:16;;;;;;;8.57;6.63;;;;;;;-145.79;80.91;76546.47;5304280;28;20024;-79
2023/08/19 14:02:47;;;;;;;7.32;6.55;;;;;;;-145.79;81.02;76576.13;5305497;28;20085;-79
2023/08/19 14:05:18;;;;;;;6.88;6.07;;;;;;;-145.79;80.47;76554.94;5303484;28;20020;-79
2023/08/19 14:07:50;;;;;;;6.80;5.25;;;;;;;-145.79;78.79;76550.69;5303503;28;20023;-78
2023/08/19 14:10:22;;;;;;;7.60;5.70;;;;;;;-145.79;77.47;76559.19;5303796;28;20032;-79
2023/08/19 14:12:54;;;;;;;7.88;5.70;;;;;;;-145.79;77.19;76544.34;5303240;28;20039;-74
2023/08/19 14:15:25;;;;;;;7.90;5.68;;;;;;;-145.79;76.04;76546.47;5304644;28;20376;-85
2023/08/19 14:17:56;;;;;;;6.35;4.68;;;;;;;-145.79;74.92;76538.00;5305127;28;20078;-80
2023/08/19 14:20:28;;;;;;;12.38;4.28;;;;;;;-145.79;72.24;76512.56;5305082;28;20070;-82
2023/08/19 14:22:59;;;;;;;8.57;4.55;;;;;;;-145.79;70.40;76510.44;5307077;28;20052;-80
2023/08/19 14:25:30;;;;;;;11.15;8.05;;;;;;;-145.79;71.14;76523.16;5302921;28;20028;-82
2023/08/19 14:28:02;;;;;;;8.48;7.45;;;;;;;-145.79;71.27;76499.84;5306766;28;20103;-84
2023/08/19 14:30:36;;;;;;;70.32;64.03;;;;;;;-145.79;71.03;76474.41;5305153;28;20109;-81
2023/08/19 14:33:07;;;;;;;7.45;5.72;;;;;;;-145.79;71.38;76465.94;5303665;28;20028;-81
2023/08/19 14:35:42;;;;;;;6.50;5.10;;;;;;;-145.79;71.68;76476.53;5305080;28;20035;-82
2023/08/19 14:38:13;;;;;;;7.43;4.57;;;;;;;-145.79;72.29;76476.53;5304788;28;20035;-82
2023/08/19 14:40:45;;;;;;;6.60;4.30;;;;;;;-145.79;71.26;76491.38;5304942;28;20494;-81
2023/08/19 14:43:16;;;;;;;6.03;4.72;;;;;;;-145.79;71.26;76487.13;5299166;28;20034;-78
2023/08/19 14:45:47;;;;;;;6.07;3.72;;;;;;;-145.79;70.71;76485.00;5304102;28;20053;-80
2023/08/19 14:48:19;;;;;;;6.30;4.20;;;;;;;-145.79;70.66;76482.88;5303711;28;20019;-80
2023/08/19 14:50:50;;;;;;;6.47;3.63;;;;;;;-145.79;69.44;76474.41;5303482;28;20414;-79
2023/08/19 14:53:21;;;;;;;4.82;3.45;;;;;;;-145.79;68.01;76485.00;5304134;28;20032;-79
2023/08/19 14:55:53;;;;;;;5.68;3.17;;;;;;;-145.79;68.76;76482.88;5304647;28;20024;-78
2023/08/19 14:58:24;;;;;;;5.93;3.92;;;;;;;-145.79;68.30;76491.38;5304473;28;20034;-78
2023/08/19 15:00:55;;;;;;;5.70;3.85;;;;;;;-145.79;68.17;76504.09;5295693;28;20024;-78
2023/08/19 15:03:27;;;;;;;5.35;3.47;;;;;;;-145.79;68.61;76516.78;5303524;28;20035;-73
2023/08/19 15:05:58;;;;;;;8.85;3.20;;;;;;;-145.79;68.90;76504.09;5303637;28;20112;-68
2023/08/19 15:08:30;;;;;;;4.78;3.70;;;;;;;-145.79;69.22;76482.88;5300149;28;20183;-69
2023/08/19 15:11:01;;;;;;;5.30;3.80;;;;;;;-145.79;67.86;76461.69;5300094;28;20031;-69
2023/08/19 15:13:33;;;;;;;6.43;3.45;;;;;;;-145.79;67.09;76444.75;5292067;28;20036;-68
2023/08/19 15:16:04;;;;;;;49.55;44.53;;;;;;;-145.79;66.97;76427.78;5297292;28;20105;-66
2023/08/19 15:18:35;;;;;;;8.60;6.50;;;;;;;-145.79;66.55;76436.28;5298425;28;20024;-66
2023/08/19 15:21:07;;;;;;;5.10;3.65;;;;;;;-145.79;66.70;76432.03;5300866;28;20101;-69
2023/08/19 15:23:38;;;;;;;6.93;4.50;;;;;;;-145.79;66.96;76444.75;5302202;28;20172;-68
2023/08/19 15:26:10;;;;;;;6.70;4.97;;;;;;;-145.79;67.30;76429.91;5303040;28;20049;-67
2023/08/19 15:28:41;;;;;;;8.35;4.32;;;;;;;-145.79;67.20;76425.66;5301721;28;20028;-68
2023/08/19 15:31:14;;;;;;;7.28;3.88;;;;;;;-145.79;66.77;76427.78;5301512;28;20044;-70
2023/08/19 15:33:45;;;;;;;7.18;5.75;;;;;;;-145.79;67.34;76429.91;5296313;28;20089;-68
2023/08/19 15:36:16;;;;;;;7.57;5.50;;;;;;;-145.79;67.71;76412.97;5298532;28;20052;-68
2023/08/19 15:38:48;;;;;;;6.72;4.50;;;;;;;-145.79;67.34;76415.06;5299467;28;20027;-68
2023/08/19 15:41:19;;;;;;;104.20;94.80;;;;;;;-145.79;66.88;76402.38;5298713;28;20033;-68
2023/08/19 15:43:50;;;;;;;8.45;5.93;;;;;;;-145.79;65.98;76415.06;5299577;28;20154;-69
2023/08/19 15:46:22;;;;;;;9.40;5.15;;;;;;;-145.79;66.83;76423.56;5304558;28;20111;-68
2023/08/19 15:48:53;;;;;;;8.93;4.72;;;;;;;-145.79;66.95;76398.13;5306463;28;20468;-68
2023/08/19 15:51:25;;;;;;;5.63;5.03;;;;;;;-145.79;66.90;76423.56;5302223;28;20149;-68
2023/08/19 15:53:56;;;;;;;6.50;4.45;;;;;;;-145.79;67.64;76402.38;5306153;28;20504;-67
2023/08/19 15:56:27;;;;;;;6.63;4.82;;;;;;;-145.79;67.78;76402.38;5306000;28;20165;-69
2023/08/19 15:58:59;;;;;;;8.82;4.57;;;;;;;-145.79;66.65;76412.97;5305833;28;20027;-68
2023/08/19 16:01:30;;;;;;;5.90;4.95;;;;;;;-145.79;66.82;76402.38;5304326;28;20379;-68
2023/08/19 16:04:01;;;;;;;7.80;5.32;;;;;;;-145.79;66.19;76398.13;5304270;28;20093;-68
2023/08/19 16:06:33;;;;;;;11.27;5.72;;;;;;;-145.79;66.01;76415.06;5305092;28;20149;-68
2023/08/19 16:09:04;;;;;;;6.05;4.45;;;;;;;-145.79;66.35;76398.13;5302559;28;20066;-69
2023/08/19 16:11:36;;;;;;;5.90;4.75;;;;;;;-145.79;66.88;76408.72;5296336;28;20483;-68
2023/08/19 16:14:07;;;;;;;6.60;5.15;;;;;;;-145.79;67.07;76400.25;5294391;28;20032;-68
2023/08/19 16:16:39;;;;;;;7.15;4.88;;;;;;;-145.79;67.16;76415.06;5306031;28;20060;-68
2023/08/19 16:19:10;;;;;;;10.70;5.80;;;;;;;-145.79;66.69;76408.72;5301050;28;20335;-68
2023/08/19 16:21:43;;;;;;;8.02;5.35;;;;;;;-145.79;66.62;76417.19;5304984;28;20036;-69
2023/08/19 16:24:15;;;;;;;7.22;4.75;;;;;;;-145.79;66.47;76423.56;5300401;28;20024;-69
2023/08/19 16:26:46;;;;;;;8.60;5.25;;;;;;;-145.79;66.71;76410.84;5305443;28;20024;-69
2023/08/19 16:29:17;;;;;;;6.15;5.10;;;;;;;-145.79;66.06;76410.84;5298559;28;20017;-69
2023/08/19 16:31:49;;;;;;;10.43;8.63;;;;;;;-145.79;66.12;76398.13;5305969;28;20111;-69
2023/08/19 16:34:20;;;;;;;7.28;5.28;;;;;;;-145.79;64.69;76402.38;5305401;28;20042;-70
2023/08/19 16:36:51;;;;;;;8.82;5.65;;;;;;;-145.79;64.08;76393.88;5306509;28;20031;-69
2023/08/19 16:39:22;;;;;;;6.20;5.18;;;;;;;-145.79;64.21;76385.41;5305757;28;20020;-69
2023/08/19 16:41:54;;;;;;;9.93;5.60;;;;;;;-145.79;63.86;76372.69;5300586;28;20036;-68
2023/08/19 16:44:25;;;;;;;6.32;5.00;;;;;;;-145.79;64.41;76387.53;5306374;28;20048;-68
2023/08/19 16:46:57;;;;;;;7.90;5.55;;;;;;;-145.79;64.27;76393.88;5306065;28;20095;-68
2023/08/19 16:49:28;;;;;;;6.63;4.95;;;;;;;-145.79;64.40;76379.06;5306522;28;20467;-68
2023/08/19 16:52:00;;;;;;;8.65;5.07;;;;;;;-145.79;64.21;76376.94;5304152;28;20020;-69
2023/08/19 16:54:31;;;;;;;8.25;5.72;;;;;;;-145.79;64.47;76379.06;5303387;28;20039;-69
